Time;durP1;ratioP1;P1;durP2;ratioP2;P2;SDS_P1;SDS_P2;PMS_P1;PMS_P2;Temp;Humidity;BMP_temperature;BMP_pressure;BME280_temperature;BME280_humidity;BME280_pressure;Samples;Min_cycle;Max_cycle;Signal;HPM_P1;HPM_P2
2023/03/03 00:00:02;;;;;;;2.55;1.50;;;11.70;80.90;;;;;;6191196;23;20104;-76
2023/03/03 00:02:28;;;;;;;4.60;1.92;;;11.60;81.30;;;;;;6214561;23;20346;-77
2023/03/03 00:04:54;;;;;;;3.20;1.50;;;11.60;82.10;;;;;;6188214;23;20012;-75
2023/03/03 00:07:21;;;;;;;3.53;1.45;;;11.50;81.80;;;;;;6215403;23;20001;-76
2023/03/03 00:09:48;;;;;;;3.00;1.63;;;11.50;82.20;;;;;;6215424;23;20008;-76
2023/03/03 00:12:24;;;;;;;4.82;1.58;;;11.50;82.10;;;;;;6215072;23;19997;-74
2023/03/03 00:14:50;;;;;;;2.63;1.30;;;11.50;81.90;;;;;;6214989;23;20060;-75
2023/03/03 00:17:24;;;;;;;2.88;1.20;;;11.50;82.10;;;;;;6215238;23;20000;-76
2023/03/03 00:19:50;;;;;;;3.10;1.52;;;11.50;81.80;;;;;;6215399;23;20012;-76
2023/03/03 00:22:36;;;;;;;3.47;1.50;;;11.50;82.10;;;;;;6215401;23;20331;-76
2023/03/03 00:25:28;;;;;;;3.08;1.20;;;11.50;82.20;;;;;;6215598;23;20013;-74
2023/03/03 00:27:55;;;;;;;1.60;1.10;;;11.60;82.70;;;;;;6210637;23;20391;-74
2023/03/03 00:30:26;;;;;;;2.95;1.20;;;11.60;81.80;;;;;;6215335;23;20009;-76
2023/03/03 00:32:52;;;;;;;2.42;1.10;;;11.60;81.60;;;;;;6214975;23;20003;-76
2023/03/03 00:35:21;;;;;;;2.55;1.20;;;11.60;81.50;;;;;;6215392;23;20315;-77
2023/03/03 00:37:49;;;;;;;1.95;1.10;;;11.60;81.50;;;;;;6215658;23;20001;-75
2023/03/03 00:40:24;;;;;;;2.95;1.30;;;11.60;81.60;;;;;;6214725;23;20104;-75
2023/03/03 00:42:55;;;;;;;2.95;1.38;;;11.50;81.30;;;;;;6215154;23;20009;-75
2023/03/03 00:45:23;;;;;;;2.40;1.30;;;11.40;81.50;;;;;;6215311;23;20358;-76
2023/03/03 00:47:49;;;;;;;2.30;1.20;;;11.40;82.10;;;;;;6214764;23;20322;-75
2023/03/03 00:50:29;;;;;;;2.63;1.52;;;11.30;82.30;;;;;;6216026;23;20079;-74
2023/03/03 00:53:06;;;;;;;2.38;1.30;;;11.30;82.10;;;;;;6216362;23;19996;-76
2023/03/03 00:55:34;;;;;;;3.00;1.35;;;11.20;82.50;;;;;;6216957;23;20334;-76
2023/03/03 00:58:00;;;;;;;1.92;1.20;;;11.20;82.60;;;;;;6216602;23;20080;-75
2023/03/03 01:00:25;;;;;;;1.63;1.00;;;11.20;82.30;;;;;;6216425;23;20055;-74
2023/03/03 01:02:51;;;;;;;4.65;1.10;;;11.10;82.60;;;;;;6216527;23;20025;-76
2023/03/03 01:05:19;;;;;;;1.92;1.10;;;11.10;82.60;;;;;;6216637;23;20456;-75
2023/03/03 01:07:45;;;;;;;3.45;1.40;;;11.10;82.40;;;;;;6216461;23;19996;-76
2023/03/03 01:10:11;;;;;;;3.33;1.33;;;11.10;82.30;;;;;;6216505;23;20005;-75
2023/03/03 01:12:37;;;;;;;2.30;1.30;;;11.10;82.70;;;;;;6216568;23;20506;-76
2023/03/03 01:15:05;;;;;;;2.88;1.13;;;11.10;82.80;;;;;;6216451;23;20004;-73
2023/03/03 01:17:31;;;;;;;3.13;1.50;;;11.10;82.50;;;;;;6216390;23;19997;-73
2023/03/03 01:19:56;;;;;;;3.15;1.67;;;11.00;82.80;;;;;;6189528;23;20019;-75
2023/03/03 01:22:22;;;;;;;4.03;1.60;;;11.10;82.80;;;;;;6216786;23;20001;-75
2023/03/03 01:24:48;;;;;;;4.05;1.88;;;11.10;82.70;;;;;;6216466;23;20009;-75
2023/03/03 01:27:13;;;;;;;2.88;1.60;;;11.20;82.90;;;;;;6216374;23;20003;-75
2023/03/03 01:29:39;;;;;;;2.47;1.40;;;11.20;82.80;;;;;;6189739;23;20334;-75
2023/03/03 01:32:05;;;;;;;2.75;1.50;;;11.20;82.80;;;;;;6216438;23;20062;-74
2023/03/03 01:34:30;;;;;;;3.03;1.67;;;11.30;82.50;;;;;;6216740;23;20035;-75
2023/03/03 01:36:56;;;;;;;3.72;1.50;;;11.20;82.30;;;;;;6216414;23;20000;-76
2023/03/03 01:39:22;;;;;;;3.95;1.52;;;11.20;82.30;;;;;;6216091;23;20013;-75
2023/03/03 01:41:47;;;;;;;3.25;1.45;;;11.20;82.40;;;;;;6190344;23;20072;-74
2023/03/03 01:44:14;;;;;;;3.08;1.60;;;11.20;82.50;;;;;;6216137;23;20005;-73
2023/03/03 01:46:54;;;;;;;3.22;1.60;;;11.20;82.80;;;;;;6216067;23;19997;-75
2023/03/03 01:49:34;;;;;;;2.50;1.40;;;11.10;82.40;;;;;;6189427;23;20020;-75
2023/03/03 01:52:04;;;;;;;2.63;1.30;;;11.10;82.90;;;;;;6216109;23;20387;-75
2023/03/03 01:54:37;;;;;;;4.55;1.75;;;11.10;82.80;;;;;;6214607;23;20024;-75
2023/03/03 01:57:10;;;;;;;2.58;1.30;;;11.10;82.70;;;;;;6215756;23;20005;-75
2023/03/03 01:59:39;;;;;;;2.85;1.40;;;11.10;82.60;;;;;;6215666;23;20023;-74
2023/03/03 02:02:06;;;;;;;2.67;1.50;;;11.00;83.20;;;;;;6188074;23;20446;-75
2023/03/03 02:04:34;;;;;;;2.95;1.45;;;11.00;83.50;;;;;;6216011;23;20000;-75
2023/03/03 02:07:09;;;;;;;3.13;1.30;;;11.00;83.60;;;;;;6215786;23;20076;-74
2023/03/03 02:09:56;;;;;;;3.00;1.58;;;11.00;83.50;;;;;;6215974;23;20008;-75
2023/03/03 02:12:29;;;;;;;3.20;1.50;;;10.80;82.70;;;;;;6215536;23;20084;-74
2023/03/03 02:14:55;;;;;;;2.78;1.50;;;10.80;84.00;;;;;;6215698;23;20016;-75
2023/03/03 02:17:21;;;;;;;2.42;1.63;;;10.80;83.60;;;;;;6189193;23;20012;-74
2023/03/03 02:19:58;;;;;;;3.88;1.90;;;10.80;83.90;;;;;;6215428;23;20092;-75
2023/03/03 02:22:49;;;;;;;3.40;1.52;;;10.80;84.10;;;;;;6215569;23;19997;-74
2023/03/03 02:25:23;;;;;;;3.22;1.58;;;10.80;84.30;;;;;;6216263;23;20008;-73
2023/03/03 02:27:49;;;;;;;3.92;1.70;;;10.70;83.90;;;;;;6216734;23;20001;-74
2023/03/03 02:30:18;;;;;;;3.08;1.80;;;10.70;84.20;;;;;;6220577;23;20088;-75
2023/03/03 02:32:43;;;;;;;4.63;2.50;;;10.70;84.20;;;;;;6227539;23;20068;-75
2023/03/03 02:35:39;;;;;;;3.58;2.40;;;10.60;84.10;;;;;;6227412;23;20435;-76
2023/03/03 02:38:23;;;;;;;6.28;2.88;;;10.60;84.30;;;;;;6209449;23;20012;-75
2023/03/03 02:41:14;;;;;;;5.70;3.25;;;10.50;85.10;;;;;;6227646;23;20013;-76
2023/03/03 02:44:04;;;;;;;6.07;3.53;;;10.50;84.20;;;;;;6224560;23;20071;-74
2023/03/03 02:46:39;;;;;;;6.13;3.58;;;10.40;84.50;;;;;;6223189;23;20004;-74
2023/03/03 02:49:07;;;;;;;6.65;4.30;;;10.40;85.10;;;;;;6217473;23;20031;-74
2023/03/03 02:51:33;;;;;;;5.65;3.85;;;10.40;85.60;;;;;;6216614;23;20047;-74
2023/03/03 02:53:59;;;;;;;6.55;3.95;;;10.40;86.40;;;;;;6215807;23;20011;-75
2023/03/03 02:56:25;;;;;;;7.13;4.43;;;10.40;85.70;;;;;;6215974;23;20075;-75
2023/03/03 02:58:50;;;;;;;5.82;4.10;;;10.40;86.00;;;;;;6215714;23;20005;-75
2023/03/03 03:01:17;;;;;;;6.95;3.83;;;10.40;85.90;;;;;;6215021;23;20047;-74
2023/03/03 03:03:43;;;;;;;5.78;4.50;;;10.40;86.00;;;;;;6215488;23;20128;-74
2023/03/03 03:06:09;;;;;;;5.75;4.20;;;10.40;85.80;;;;;;6215241;23;20427;-74
2023/03/03 03:08:35;;;;;;;5.93;4.30;;;10.30;86.00;;;;;;6215271;23;20001;-74
2023/03/03 03:11:01;;;;;;;6.78;4.18;;;10.30;85.90;;;;;;6215492;23;20043;-75
2023/03/03 03:13:27;;;;;;;6.90;4.40;;;10.30;85.90;;;;;;6214981;23;20001;-74
2023/03/03 03:15:53;;;;;;;7.47;4.45;;;10.30;86.00;;;;;;6214924;23;20005;-76
2023/03/03 03:18:18;;;;;;;6.65;4.40;;;10.30;85.70;;;;;;6188407;23;20005;-75
2023/03/03 03:20:44;;;;;;;6.10;4.07;;;10.30;85.90;;;;;;6215112;23;20012;-74
2023/03/03 03:23:10;;;;;;;5.50;3.70;;;10.30;85.80;;;;;;6215284;23;20072;-74
2023/03/03 03:25:44;;;;;;;5.80;3.35;;;10.20;85.60;;;;;;6215269;23;20352;-75
2023/03/03 03:28:11;;;;;;;5.55;3.80;;;10.10;85.40;;;;;;6215242;23;20000;-76
2023/03/03 03:30:38;;;;;;;5.75;3.67;;;10.10;85.90;;;;;;6215397;23;20009;-75
2023/03/03 03:33:04;;;;;;;7.25;4.00;;;10.20;85.70;;;;;;6215467;23;20334;-75
2023/03/03 03:35:29;;;;;;;6.65;3.65;;;10.20;86.10;;;;;;6215013;23;19997;-75
2023/03/03 03:37:55;;;;;;;5.20;3.53;;;10.20;85.90;;;;;;6215624;23;20004;-74
2023/03/03 03:40:21;;;;;;;6.57;4.05;;;10.20;85.50;;;;;;6214926;23;20437;-75
2023/03/03 03:42:46;;;;;;;6.22;4.10;;;10.20;85.50;;;;;;6188442;23;20031;-75
2023/03/03 03:45:15;;;;;;;5.53;3.53;;;10.20;85.80;;;;;;6215197;23;20001;-74
2023/03/03 03:47:41;;;;;;;5.50;3.28;;;10.20;85.50;;;;;;6215316;23;19996;-74
2023/03/03 03:50:08;;;;;;;6.40;3.90;;;10.20;85.40;;;;;;6215130;23;20051;-75
2023/03/03 03:52:34;;;;;;;5.80;3.75;;;10.20;85.60;;;;;;6215174;23;19997;-75
2023/03/03 03:55:00;;;;;;;5.45;3.42;;;10.20;85.50;;;;;;6215153;23;20009;-74
2023/03/03 03:57:26;;;;;;;5.50;3.55;;;10.20;85.70;;;;;;6215109;23;20007;-75
2023/03/03 03:59:52;;;;;;;7.45;3.22;;;10.20;85.40;;;;;;6214844;23;20009;-74
2023/03/03 04:02:18;;;;;;;6.70;3.25;;;10.20;85.50;;;;;;6214942;23;20393;-74
2023/03/03 04:04:44;;;;;;;5.90;3.28;;;10.30;85.30;;;;;;6215024;23;20007;-75
2023/03/03 04:07:09;;;;;;;4.70;3.00;;;10.30;85.00;;;;;;6188222;23;20052;-75
2023/03/03 04:09:35;;;;;;;8.68;3.08;;;10.30;84.90;;;;;;6215508;23;20004;-73
2023/03/03 04:12:01;;;;;;;5.47;2.80;;;10.30;84.50;;;;;;6214659;23;20004;-74
2023/03/03 04:14:26;;;;;;;7.20;3.15;;;10.30;85.00;;;;;;6215051;23;20438;-74
2023/03/03 04:16:52;;;;;;;4.90;2.75;;;10.30;85.00;;;;;;6215310;23;20064;-75
2023/03/03 04:19:18;;;;;;;5.45;2.78;;;10.30;84.20;;;;;;6215799;23;20020;-75
2023/03/03 04:21:44;;;;;;;5.63;2.55;;;10.40;84.20;;;;;;6217173;23;20508;-75
2023/03/03 04:24:09;;;;;;;4.45;2.60;;;10.40;84.20;;;;;;6215400;23;20035;-75
2023/03/03 04:26:35;;;;;;;5.60;2.80;;;10.40;84.30;;;;;;6216863;23;20007;-75
2023/03/03 04:29:01;;;;;;;4.82;2.70;;;10.50;84.20;;;;;;6217281;23;20074;-75
2023/03/03 04:31:27;;;;;;;5.25;2.70;;;10.50;83.90;;;;;;6216937;23;20000;-76
2023/03/03 04:33:52;;;;;;;4.00;2.58;;;10.50;84.00;;;;;;6216860;23;20052;-76
2023/03/03 04:36:19;;;;;;;4.15;2.42;;;10.50;83.90;;;;;;6216394;23;20058;-75
2023/03/03 04:38:45;;;;;;;4.78;2.75;;;10.50;83.60;;;;;;6190802;23;20087;-75
2023/03/03 04:41:11;;;;;;;5.32;2.60;;;10.50;83.60;;;;;;6216872;23;20035;-75
2023/03/03 04:43:37;;;;;;;5.93;2.95;;;10.50;83.60;;;;;;6216880;23;20001;-74
2023/03/03 04:46:03;;;;;;;4.60;2.42;;;10.60;83.70;;;;;;6189918;23;20015;-74
2023/03/03 04:48:29;;;;;;;4.07;2.78;;;10.60;83.40;;;;;;6216677;23;20055;-75
2023/03/03 04:50:55;;;;;;;5.88;2.70;;;10.60;83.60;;;;;;6216477;23;20431;-74
2023/03/03 04:53:21;;;;;;;6.47;2.90;;;10.60;83.50;;;;;;6217080;23;20382;-76
2023/03/03 04:55:49;;;;;;;6.05;2.92;;;10.60;83.40;;;;;;6216902;23;20071;-75
2023/03/03 04:58:15;;;;;;;4.32;2.70;;;10.60;83.10;;;;;;6189932;23;20058;-77
2023/03/03 05:00:41;;;;;;;4.78;2.83;;;10.60;82.90;;;;;;6216229;23;20086;-74
2023/03/03 05:03:10;;;;;;;7.03;3.00;;;10.60;82.90;;;;;;6216476;23;20001;-75
2023/03/03 05:05:36;;;;;;;4.90;2.65;;;10.60;83.30;;;;;;6216549;23;20000;-74
2023/03/03 05:08:02;;;;;;;5.28;2.70;;;10.50;82.70;;;;;;6216440;23;20001;-76
2023/03/03 05:10:27;;;;;;;4.78;2.13;;;10.50;82.70;;;;;;6217111;23;20005;-76
2023/03/03 05:12:53;;;;;;;5.20;2.55;;;10.40;82.60;;;;;;6216579;23;19997;-74
2023/03/03 05:15:19;;;;;;;3.47;1.90;;;10.40;82.70;;;;;;6216550;23;20399;-75
2023/03/03 05:17:44;;;;;;;5.15;2.60;;;10.40;82.80;;;;;;6216581;23;20456;-74
2023/03/03 05:20:12;;;;;;;5.97;2.45;;;10.50;82.70;;;;;;6215862;23;20016;-75
2023/03/03 05:22:37;;;;;;;7.25;2.47;;;10.50;82.70;;;;;;6216421;23;20076;-75
2023/03/03 05:25:04;;;;;;;3.72;2.20;;;10.50;82.80;;;;;;6216521;23;20043;-74
2023/03/03 05:27:29;;;;;;;5.22;2.58;;;10.50;82.70;;;;;;6216604;23;19996;-75
2023/03/03 05:29:55;;;;;;;4.70;2.60;;;10.50;82.80;;;;;;6216336;23;20028;-74
2023/03/03 05:32:21;;;;;;;4.63;2.53;;;10.50;83.00;;;;;;6189850;23;20011;-77
2023/03/03 05:34:46;;;;;;;4.50;2.25;;;10.50;82.70;;;;;;6216635;23;20434;-74
2023/03/03 05:37:14;;;;;;;3.88;2.20;;;10.50;82.80;;;;;;6216093;23;20346;-75
2023/03/03 05:39:40;;;;;;;5.00;2.35;;;10.50;82.70;;;;;;6216557;23;20111;-75
2023/03/03 05:42:05;;;;;;;3.83;1.90;;;10.60;82.40;;;;;;6216370;23;20000;-75
2023/03/03 05:44:31;;;;;;;3.70;2.00;;;10.60;82.40;;;;;;6216409;23;20075;-75
2023/03/03 05:46:57;;;;;;;3.83;1.88;;;10.60;82.50;;;;;;6216049;23;19997;-75
2023/03/03 05:49:24;;;;;;;3.55;1.92;;;10.60;82.30;;;;;;6216447;23;20075;-75
2023/03/03 05:51:50;;;;;;;5.07;1.92;;;10.60;81.90;;;;;;6216324;23;19997;-75
2023/03/03 05:54:16;;;;;;;3.20;1.70;;;10.60;81.80;;;;;;6216328;23;20005;-78
2023/03/03 05:56:42;;;;;;;4.40;2.42;;;10.60;81.80;;;;;;6217331;23;19997;-75
2023/03/03 05:59:07;;;;;;;3.88;1.70;;;10.60;81.50;;;;;;6217664;23;20016;-74
2023/03/03 06:01:33;;;;;;;4.68;1.70;;;10.60;81.30;;;;;;6227012;23;20066;-75
2023/03/03 06:03:59;;;;;;;3.33;1.85;;;10.60;81.20;;;;;;6242053;23;20000;-75
2023/03/03 06:06:24;;;;;;;6.07;2.15;;;10.60;81.10;;;;;;6223757;23;20067;-76
2023/03/03 06:08:52;;;;;;;3.42;1.60;;;10.60;80.80;;;;;;6217710;23;20362;-75
2023/03/03 06:11:18;;;;;;;3.53;1.75;;;10.60;80.90;;;;;;6216736;23;20343;-77
2023/03/03 06:13:44;;;;;;;3.33;1.90;;;10.60;80.80;;;;;;6217083;23;20006;-78
2023/03/03 06:16:09;;;;;;;4.97;2.13;;;10.70;80.70;;;;;;6216272;23;20492;-76
2023/03/03 06:18:35;;;;;;;4.32;2.35;;;10.70;80.60;;;;;;6189721;23;20076;-76
2023/03/03 06:21:01;;;;;;;4.68;2.08;;;10.80;80.60;;;;;;6215905;23;20004;-74
2023/03/03 06:23:27;;;;;;;4.15;1.92;;;10.80;80.30;;;;;;6215969;23;20334;-77
2023/03/03 06:25:52;;;;;;;4.50;1.73;;;10.80;80.30;;;;;;6215778;23;20004;-76
2023/03/03 06:28:18;;;;;;;3.30;1.90;;;10.80;80.30;;;;;;6189355;23;20457;-75
2023/03/03 06:30:44;;;;;;;3.90;1.70;;;10.80;80.30;;;;;;6215840;23;20001;-76
2023/03/03 06:33:10;;;;;;;4.80;1.60;;;10.90;80.00;;;;;;6215477;23;20358;-75
2023/03/03 06:35:36;;;;;;;2.58;1.55;;;10.90;80.10;;;;;;6188989;23;20059;-75
2023/03/03 06:38:01;;;;;;;3.38;1.55;;;11.00;79.70;;;;;;6215884;23;20008;-77
2023/03/03 06:40:27;;;;;;;3.45;1.65;;;11.00;79.30;;;;;;6215450;23;20389;-75
2023/03/03 06:42:53;;;;;;;4.63;2.20;;;11.00;79.20;;;;;;6215253;23;19997;-76
2023/03/03 06:45:19;;;;;;;5.07;1.83;;;11.00;79.40;;;;;;6216107;23;20009;-76
2023/03/03 06:47:44;;;;;;;2.88;1.63;;;11.10;79.60;;;;;;6218522;23;20028;-75
2023/03/03 06:50:11;;;;;;;4.80;2.05;;;11.20;79.30;;;;;;6215912;23;20047;-81
2023/03/03 06:52:37;;;;;;;5.25;2.38;;;11.20;79.30;;;;;;6216025;23;20001;-76
2023/03/03 06:55:17;;;;;;;4.15;1.90;;;11.30;79.20;;;;;;6188931;23;20063;-80
2023/03/03 06:57:42;;;;;;;4.40;2.00;;;11.30;79.20;;;;;;6216711;23;20004;-81
2023/03/03 07:00:19;;;;;;;4.00;2.03;;;11.30;79.20;;;;;;6215176;23;20008;-81
2023/03/03 07:02:50;;;;;;;4.45;2.40;;;11.30;79.30;;;;;;6190274;23;20064;-80
2023/03/03 07:05:17;;;;;;;5.25;2.47;;;11.20;79.20;;;;;;6189500;23;20008;-79
2023/03/03 07:07:44;;;;;;;4.25;2.58;;;11.20;79.40;;;;;;6216228;23;20101;-77
2023/03/03 07:10:28;;;;;;;4.32;2.22;;;11.20;79.60;;;;;;6215208;23;19996;-79
2023/03/03 07:13:01;;;;;;;6.45;2.63;;;11.20;79.90;;;;;;6188484;23;20004;-76
2023/03/03 07:15:34;;;;;;;4.55;2.60;;;11.20;79.70;;;;;;6216067;23;20312;-76
2023/03/03 07:18:01;;;;;;;;;;;11.20;79.90;;;;;;6216823;23;20069;-80
2023/03/03 07:20:35;;;;;;;6.53;2.70;;;11.10;80.40;;;;;;6214960;23;20396;-79
2023/03/03 07:23:23;;;;;;;5.88;2.70;;;11.10;80.10;;;;;;6216782;23;20431;-84
2023/03/03 07:25:50;;;;;;;10.48;3.00;;;11.10;80.00;;;;;;6215773;23;20004;-81
2023/03/03 07:28:22;;;;;;;9.65;3.08;;;11.00;80.30;;;;;;6216881;23;20496;-85
2023/03/03 07:30:48;;;;;;;6.40;3.17;;;11.10;80.20;;;;;;6219325;23;20011;-86
2023/03/03 07:33:25;;;;;;;6.15;2.88;;;11.10;80.20;;;;;;6220471;23;19997;-86
2023/03/03 07:35:53;;;;;;;6.63;3.25;;;11.20;80.60;;;;;;6219545;23;20000;-85
2023/03/03 07:38:21;;;;;;;8.98;4.47;;;11.30;80.40;;;;;;6220928;23;20020;-86
2023/03/03 07:40:52;;;;;;;7.15;3.40;;;11.40;80.20;;;;;;6218366;23;20013;-88
2023/03/03 07:43:54;;;;;;;11.52;3.90;;;11.50;79.60;;;;;;6190670;23;20073;-78
2023/03/03 07:46:24;;;;;;;10.63;3.65;;;11.60;79.50;;;;;;6234224;23;20028;-88
2023/03/03 07:48:52;;;;;;;12.45;4.43;;;11.70;79.40;;;;;;6233467;23;20027;-91
2023/03/03 07:51:24;;;;;;;8.55;4.43;;;11.90;79.50;;;;;;6237582;23;19996;-86
2023/03/03 07:53:51;;;;;;;7.07;3.65;;;12.00;79.30;;;;;;6233325;23;20005;-87
2023/03/03 07:56:33;;;;;;;12.27;4.63;;;12.00;78.60;;;;;;6232318;23;19993;-87
2023/03/03 07:59:01;;;;;;;10.65;4.07;;;12.10;78.40;;;;;;6242065;23;19993;-87
2023/03/03 08:01:39;;;;;;;8.98;4.93;;;12.10;78.20;;;;;;6245347;23;20025;-88
2023/03/03 08:04:19;;;;;;;11.40;5.78;;;12.10;78.60;;;;;;6244472;23;20110;-86
2023/03/03 08:06:55;;;;;;;17.60;9.15;;;12.20;78.50;;;;;;6234373;23;20047;-88
2023/03/03 08:09:37;;;;;;;13.30;5.32;;;12.20;78.00;;;;;;6233529;23;20007;-88
2023/03/03 08:12:06;;;;;;;12.35;4.68;;;12.30;78.00;;;;;;6223564;23;20001;-90
2023/03/03 08:14:37;;;;;;;12.00;4.82;;;12.30;76.90;;;;;;6229492;23;20299;-88
2023/03/03 08:17:23;;;;;;;14.23;4.97;;;12.30;77.20;;;;;;6194499;23;20442;-89
2023/03/03 08:19:51;;;;;;;12.23;4.97;;;12.40;77.50;;;;;;6221947;23;20130;-88
2023/03/03 08:22:23;;;;;;;12.80;5.47;;;12.40;77.00;;;;;;6231039;23;19984;-90
2023/03/03 08:24:49;;;;;;;15.82;5.38;;;12.60;77.10;;;;;;6195949;23;20023;-89
2023/03/03 08:27:14;;;;;;;11.10;4.93;;;12.60;76.80;;;;;;6221509;23;19997;-85
2023/03/03 08:29:40;;;;;;;11.20;4.20;;;12.70;76.70;;;;;;6220977;23;20012;-89
2023/03/03 08:32:06;;;;;;;11.95;5.05;;;12.70;76.80;;;;;;6220412;23;20001;-89
2023/03/03 08:34:31;;;;;;;11.88;4.80;;;12.80;76.70;;;;;;6221073;23;20004;-88
2023/03/03 08:36:57;;;;;;;14.40;4.68;;;12.80;76.60;;;;;;6221246;23;20009;-88
2023/03/03 08:39:23;;;;;;;14.75;4.47;;;12.90;76.60;;;;;;6220566;23;20458;-88
2023/03/03 08:41:49;;;;;;;14.63;5.20;;;12.90;76.40;;;;;;6220407;23;20047;-87
2023/03/03 08:44:15;;;;;;;10.75;3.60;;;12.90;76.30;;;;;;6220590;23;20431;-86
2023/03/03 08:46:42;;;;;;;9.13;4.35;;;12.90;76.20;;;;;;6220383;23;20140;-85
2023/03/03 08:49:08;;;;;;;11.73;3.75;;;13.00;76.20;;;;;;6218791;23;20358;-84
2023/03/03 08:51:34;;;;;;;4.80;2.35;;;13.10;76.20;;;;;;6219263;23;20026;-82
2023/03/03 08:54:00;;;;;;;4.32;1.80;;;13.10;76.00;;;;;;6219438;23;20172;-85
2023/03/03 08:56:25;;;;;;;4.60;1.80;;;13.20;75.60;;;;;;6225739;23;20004;-85
2023/03/03 08:58:51;;;;;;;5.50;1.60;;;13.20;74.80;;;;;;6227732;23;20012;-86
2023/03/03 09:01:17;;;;;;;4.68;1.60;;;13.20;74.20;;;;;;6222605;23;20016;-80
2023/03/03 09:03:43;;;;;;;7.47;1.60;;;13.30;73.90;;;;;;6219363;23;20087;-80
2023/03/03 09:06:09;;;;;;;4.13;1.70;;;13.40;74.20;;;;;;6191913;23;20079;-78
2023/03/03 09:08:35;;;;;;;5.53;2.30;;;13.40;73.30;;;;;;6218065;23;20001;-77
2023/03/03 09:11:01;;;;;;;4.72;2.05;;;13.50;73.30;;;;;;6217453;23;20066;-79
2023/03/03 09:13:29;;;;;;;6.18;1.33;;;13.70;73.00;;;;;;6217987;23;20075;-82
2023/03/03 09:15:57;;;;;;;3.20;1.10;;;13.80;72.30;;;;;;6216079;23;20004;-79
2023/03/03 09:18:34;;;;;;;3.67;1.25;;;13.90;71.50;;;;;;6216220;23;20428;-79
2023/03/03 09:21:00;;;;;;;4.57;1.10;;;14.10;70.90;;;;;;6217034;23;20009;-81
2023/03/03 09:23:36;;;;;;;5.05;1.10;;;14.20;70.00;;;;;;6191031;23;20051;-79
2023/03/03 09:26:28;;;;;;;9.25;1.60;;;14.30;69.90;;;;;;6190948;23;20008;-81
2023/03/03 09:28:55;;;;;;;2.63;1.10;;;14.30;69.30;;;;;;6216584;23;20080;-83
2023/03/03 09:31:51;;;;;;;5.88;1.25;;;14.30;69.20;;;;;;6216977;23;20423;-84
2023/03/03 09:34:35;;;;;;;7.10;1.30;;;14.30;68.80;;;;;;6216305;23;20058;-83
2023/03/03 09:37:20;;;;;;;7.75;1.50;;;14.40;68.90;;;;;;6216360;23;20001;-84
2023/03/03 09:39:52;;;;;;;5.85;1.00;;;14.40;68.20;;;;;;6216935;23;20016;-86
2023/03/03 09:42:41;;;;;;;3.60;1.20;;;14.40;68.00;;;;;;6216581;23;20016;-82
2023/03/03 09:45:29;;;;;;;4.25;1.08;;;14.40;67.50;;;;;;6217731;23;20004;-81
2023/03/03 09:48:27;;;;;;;5.50;1.33;;;14.50;67.30;;;;;;6220520;23;20001;-83
2023/03/03 09:51:17;;;;;;;4.68;1.67;;;14.50;68.00;;;;;;6215956;23;20443;-80
2023/03/03 09:54:14;;;;;;;5.38;1.40;;;14.60;67.50;;;;;;6189438;23;20418;-82
2023/03/03 09:56:50;;;;;;;6.93;1.50;;;14.60;67.20;;;;;;6216187;23;20004;-83
2023/03/03 09:59:40;;;;;;;8.48;2.05;;;14.60;67.30;;;;;;6189128;23;20021;-81
2023/03/03 10:02:37;;;;;;;8.45;1.88;;;14.60;68.00;;;;;;6215901;23;20084;-83
2023/03/03 10:05:30;;;;;;;6.00;1.80;;;14.60;67.30;;;;;;6189375;23;20087;-85
2023/03/03 10:08:20;;;;;;;4.50;1.60;;;14.70;67.20;;;;;;6215403;23;19996;-78
2023/03/03 10:11:09;;;;;;;5.22;1.50;;;14.80;66.80;;;;;;6188934;23;20243;-81
2023/03/03 10:14:13;;;;;;;3.00;1.52;;;14.90;66.50;;;;;;6215746;23;20427;-78
2023/03/03 10:16:55;;;;;;;3.13;1.45;;;15.00;65.40;;;;;;6165221;23;20086;-79
2023/03/03 10:19:40;;;;;;;5.15;2.25;;;15.00;64.60;;;;;;6188253;23;20086;-71
2023/03/03 10:22:08;;;;;;;6.72;2.03;;;15.20;64.90;;;;;;6214959;23;20089;-77
2023/03/03 10:24:48;;;;;;;6.90;1.80;;;15.20;64.40;;;;;;6215197;23;20001;-77
2023/03/03 10:27:23;;;;;;;13.25;2.47;;;15.20;64.40;;;;;;6215104;23;20001;-77
2023/03/03 10:30:12;;;;;;;4.22;1.80;;;15.20;64.10;;;;;;6215448;23;20008;-76
2023/03/03 10:33:00;;;;;;;5.13;1.85;;;15.10;63.60;;;;;;6214259;23;20004;-77
2023/03/03 10:35:45;;;;;;;6.95;1.48;;;15.30;63.60;;;;;;6216285;23;20386;-76
2023/03/03 10:38:42;;;;;;;5.03;1.40;;;15.40;63.50;;;;;;6215222;23;20040;-77
2023/03/03 10:41:27;;;;;;;5.38;1.48;;;15.50;62.80;;;;;;6214994;23;20043;-75
2023/03/03 10:43:56;;;;;;;8.45;1.50;;;15.40;62.70;;;;;;6215180;23;20004;-76
2023/03/03 10:46:46;;;;;;;2.75;1.20;;;15.50;63.10;;;;;;6214878;23;20061;-77
2023/03/03 10:49:20;;;;;;;5.32;1.60;;;15.50;63.60;;;;;;6215030;23;20493;-77
2023/03/03 10:52:07;;;;;;;5.32;1.67;;;15.60;63.60;;;;;;6215099;23;20005;-78
2023/03/03 10:55:10;;;;;;;8.35;1.20;;;15.60;64.20;;;;;;6214464;23;20004;-77
2023/03/03 10:57:47;;;;;;;4.63;1.77;;;15.60;64.50;;;;;;6214962;23;19996;-78
2023/03/03 11:00:19;;;;;;;4.78;1.23;;;15.60;63.60;;;;;;6214703;23;20013;-79
2023/03/03 11:03:10;;;;;;;3.85;1.33;;;15.50;64.00;;;;;;6187991;23;20044;-76
2023/03/03 11:05:57;;;;;;;7.35;1.42;;;15.60;64.10;;;;;;6187736;23;20005;-76
2023/03/03 11:08:43;;;;;;;3.47;1.10;;;15.60;63.20;;;;;;6214839;23;20483;-77
2023/03/03 11:11:36;;;;;;;5.88;1.33;;;15.60;63.80;;;;;;6214393;23;20007;-76
2023/03/03 11:14:05;;;;;;;2.55;1.30;;;15.60;63.80;;;;;;6214423;23;20141;-78
2023/03/03 11:16:59;;;;;;;3.22;1.38;;;15.40;63.20;;;;;;6214746;23;20008;-80
2023/03/03 11:19:28;;;;;;;;;;;15.30;64.10;;;;;;6214982;23;20023;-77
2023/03/03 11:22:04;;;;;;;3.85;1.23;;;15.30;63.40;;;;;;6214966;23;19924;-76
2023/03/03 11:24:52;;;;;;;8.05;2.03;;;15.30;63.70;;;;;;6214804;23;20008;-76
2023/03/03 11:27:44;;;;;;;3.53;1.40;;;15.30;64.00;;;;;;6188305;23;20375;-77
2023/03/03 11:30:34;;;;;;;4.22;1.60;;;15.30;63.80;;;;;;6202167;23;20016;-77
2023/03/03 11:33:11;;;;;;;9.35;1.60;;;15.30;63.50;;;;;;6187588;23;20016;-77
2023/03/03 11:36:04;;;;;;;6.32;1.63;;;15.30;63.00;;;;;;6214516;23;20092;-76
2023/03/03 11:38:51;;;;;;;3.28;1.17;;;15.40;63.40;;;;;;6214728;23;20000;-77
2023/03/03 11:41:21;;;;;;;3.83;1.40;;;15.50;62.80;;;;;;6214101;23;20008;-80
2023/03/03 11:44:04;;;;;;;4.93;1.50;;;15.60;63.10;;;;;;6214648;23;20001;-77
2023/03/03 11:46:41;;;;;;;3.03;1.30;;;15.60;62.70;;;;;;6214268;23;20430;-85
2023/03/03 11:49:23;;;;;;;4.57;1.58;;;15.70;62.30;;;;;;6215136;23;20001;-82
2023/03/03 11:52:02;;;;;;;8.98;5.03;;;15.70;62.10;;;;;;6215319;23;20004;-83
2023/03/03 11:54:55;;;;;;;4.68;2.08;;;15.70;61.90;;;;;;6216012;23;20039;-84
2023/03/03 11:58:10;;;;;;;4.65;1.98;;;15.80;62.10;;;;;;6216566;23;20411;-81
2023/03/03 12:00:48;;;;;;;6.25;1.50;;;16.00;62.00;;;;;;6144322;23;20029;-78
2023/03/03 12:03:23;;;;;;;4.30;1.33;;;16.10;61.40;;;;;;6216040;23;20040;-81
2023/03/03 12:06:00;;;;;;;5.20;1.48;;;16.10;61.20;;;;;;6218409;23;20108;-79
2023/03/03 12:08:56;;;;;;;2.88;1.42;;;16.00;60.90;;;;;;6215965;23;20072;-81
2023/03/03 12:11:34;;;;;;;4.47;1.50;;;16.00;61.30;;;;;;6215576;23;20083;-79
2023/03/03 12:14:12;;;;;;;5.82;1.48;;;16.00;61.20;;;;;;6215520;23;20058;-84
2023/03/03 12:16:58;;;;;;;2.95;1.30;;;16.00;61.30;;;;;;6215701;23;20085;-78
2023/03/03 12:19:33;;;;;;;5.53;1.50;;;16.20;61.00;;;;;;6188215;23;20056;-79
2023/03/03 12:22:14;;;;;;;4.15;1.48;;;16.40;60.60;;;;;;6215718;23;20036;-80
2023/03/03 12:25:00;;;;;;;3.30;1.30;;;16.50;59.50;;;;;;6214503;23;20012;-78
2023/03/03 12:27:26;;;;;;;6.20;1.95;;;16.60;59.70;;;;;;6215302;23;19996;-78
2023/03/03 12:30:00;;;;;;;5.57;1.67;;;16.50;59.00;;;;;;6214726;23;20011;-77
2023/03/03 12:32:57;;;;;;;4.65;2.00;;;16.60;59.20;;;;;;6216121;23;20001;-88
2023/03/03 12:35:53;;;;;;;2.75;1.15;;;16.70;59.10;;;;;;6216985;23;20000;-83
2023/03/03 12:38:34;;;;;;;3.80;1.08;;;16.70;58.60;;;;;;6173478;23;20009;-81
2023/03/03 12:41:06;;;;;;;3.33;1.13;;;16.80;58.40;;;;;;6215511;23;20087;-76
2023/03/03 12:44:07;;;;;;;4.03;1.48;;;16.80;58.40;;;;;;6214833;23;20016;-78
2023/03/03 12:47:10;;;;;;;4.82;1.40;;;16.90;58.50;;;;;;6197622;23;20009;-82
2023/03/03 12:49:43;;;;;;;5.45;1.85;;;16.90;58.00;;;;;;6219538;23;19997;-78
2023/03/03 12:53:13;;;;;;;3.88;1.50;;;17.00;57.90;;;;;;6216923;23;20116;-74
2023/03/03 12:55:50;;;;;;;7.55;1.70;;;17.00;58.00;;;;;;6115109;23;20010;-75
2023/03/03 12:58:46;;;;;;;4.03;1.33;;;17.00;58.20;;;;;;6218612;23;20004;-76
2023/03/03 13:01:21;;;;;;;4.90;1.33;;;17.10;58.10;;;;;;6216630;23;20043;-72
2023/03/03 13:04:07;;;;;;;4.95;1.50;;;17.00;58.80;;;;;;6215900;23;20005;-71
2023/03/03 13:06:54;;;;;;;7.32;1.40;;;17.00;58.80;;;;;;6215509;23;20051;-73
2023/03/03 13:09:47;;;;;;;8.38;2.45;;;17.00;58.60;;;;;;6215427;23;20079;-71
2023/03/03 13:12:30;;;;;;;5.38;1.77;;;17.00;58.60;;;;;;6215572;23;20000;-77
2023/03/03 13:15:03;;;;;;;4.70;1.83;;;17.00;58.50;;;;;;6216164;23;20004;-77